FLIGHT DETAILS
Pilot: ACV287 Karlo Siljevinac Aircraft: ALPHA SAAB GRIPEN 1 Distance: 580NM
Departure WIHH Arrival WADA Duration 1.08
Validation Validated Type Charter Tail Number 39229
ZFW 7784 Block Fuel/Initial FOB 1,636/0 Flight Fuel 1,523
Passengers 0 Cargo 0 Alternate
Departure Time Cruise Speed Flight Level
Flight Type IFR Aircraft Type Weight Unit Kg
Date 2018-01-09 Pilot Comments Network IVAO
Crashed No Validator Comments Flight Rating 100

 ROUTE
ROUTE
REMARKS
 FLIGHT FAILURES
Crashed OK Beacon off & Engine Running Fail KIAS Above 250 below 10000 FT Fail
Lights OFF below 10000 FT OK Lights ON above 10000 FT Fail Stall OK
Overspeed OK Flight paused OK Refueling Fail
Slew detected OK Taxi & Taxi lights off Fail Take off & lights off OK
Landing & lights off OK Landed in not planned airport OK Taxi Speed OK
Wrong altimeter in Take off OK Wrong altimeter in Landing OK
 LANDING ANALYSIS
Landing wind 0º/0 kt Landing heading 180
Landing VS: -901.97 ft/min Landing IAS: 102.39 kt
Landing Force G 1.3 G Landing Bank 2
Landing Pitch 7.2 Landing Flaps 90
Navigation Lights ON Landing Lights ON
Beacon Lights ON Strobe Lights OFF
 FLIGHT MAP
 ALTITUDE CHART
 FLIGHT FINANCIAL REPORT
 MAIN EVENTS
DATE EVENTIASALTITUDE
2018-01-08 23:04:32 SIM ACARS version 1.4.0091
2018-01-08 23:04:32 BOARDING091
2018-01-08 23:04:32 STARTING ENGINE 1 091
2018-01-08 23:04:32 BEACON LIGHT OFF & ENGINE ON091
2018-01-08 23:06:38 TAXI TO THE RWY 1091
2018-01-08 23:06:38 TAXING WITH TAXI LIGHTS OFF1091
2018-01-08 23:08:57 ROLLING FOR TAKE OFF3791
2018-01-08 23:09:09 TAKE OFF18991
2018-01-08 23:09:10 GEAR UP196102
2018-01-08 23:09:12 REFUELING -1.17%209166
2018-01-08 23:09:18 IAS ABOVE 250 KNOTS BELOW 10000 ft261589
2018-01-08 23:09:32 REFUELING -1.45%4091817
2018-01-08 23:09:52 REFUELING -1.28%5921771
2018-01-08 23:09:59 DESCEND5921703
2018-01-08 23:10:12 REFUELING -0.78%5891615
2018-01-08 23:10:33 REFUELING -0.80%5861521
2018-01-08 23:10:49 CRUISE5821503
2018-01-08 23:10:52 REFUELING -0.75%5821502
2018-01-08 23:11:12 REFUELING -0.76%5791498
2018-01-08 23:11:32 REFUELING -0.78%5781498
2018-01-08 23:11:52 REFUELING -0.75%5771497
2018-01-08 23:12:12 REFUELING -0.70%5611516
2018-01-08 23:12:33 REFUELING -0.59%5251505
2018-01-08 23:12:52 REFUELING -0.56%5121500
2018-01-08 23:13:12 REFUELING -0.60%5061497
2018-01-08 23:13:32 REFUELING -0.59%5011498
2018-01-08 23:14:33 REFUELING -0.52%4561498
2018-01-08 23:15:12 REFUELING -0.50%4521498
2018-01-08 23:15:32 REFUELING -0.51%4511498
2018-01-08 23:16:12 REFUELING -0.51%4501499
2018-01-08 23:16:33 REFUELING -0.52%4501497
2018-01-08 23:17:12 REFUELING -0.51%4501502
2018-01-08 23:17:32 REFUELING -0.50%4501497
2018-01-08 23:18:12 REFUELING -0.50%4501497
2018-01-08 23:18:33 REFUELING -0.52%4501497
2018-01-08 23:19:52 REFUELING -0.51%4501499
2018-01-08 23:20:12 REFUELING -0.50%4501497
2018-01-08 23:20:33 REFUELING -0.52%4501498
2018-01-08 23:21:12 REFUELING -0.50%4501497
2018-01-08 23:22:33 REFUELING -0.52%4501497
2018-01-08 23:23:12 REFUELING -0.50%4501498
2018-01-08 23:23:32 REFUELING -0.50%4501496
2018-01-08 23:24:12 REFUELING -0.50%4501499
2018-01-08 23:24:33 REFUELING -0.52%4501497
2018-01-08 23:25:12 REFUELING -0.51%4501497
2018-01-08 23:25:32 REFUELING -0.50%4501497
2018-01-08 23:26:12 REFUELING -0.50%4501497
2018-01-08 23:26:33 REFUELING -0.52%4501498
2018-01-08 23:27:12 REFUELING -0.51%4501497
2018-01-08 23:28:33 REFUELING -0.52%4501498
2018-01-08 23:29:12 REFUELING -0.50%4501499
2018-01-08 23:29:32 REFUELING -0.50%4501497
2018-01-08 23:29:52 REFUELING -0.50%4501497
2018-01-08 23:30:12 REFUELING -0.50%4501498
2018-01-08 23:30:33 REFUELING -0.52%4501496
2018-01-08 23:31:12 REFUELING -0.50%4501499
2018-01-08 23:31:33 REFUELING -0.50%4501496
2018-01-08 23:32:12 REFUELING -0.50%4501497
2018-01-08 23:32:33 REFUELING -0.52%4501498
2018-01-08 23:33:12 REFUELING -0.50%4501497
2018-01-08 23:33:32 REFUELING -0.51%4501498
2018-01-08 23:34:12 REFUELING -0.50%4501498
2018-01-08 23:34:33 REFUELING -0.51%4501498
2018-01-08 23:34:52 REFUELING -0.78%5191504
2018-01-08 23:35:12 REFUELING -0.76%5471498
2018-01-08 23:35:32 REFUELING -0.76%5601499
2018-01-08 23:35:52 REFUELING -0.75%5671497
2018-01-08 23:36:12 REFUELING -0.76%5711497
2018-01-08 23:36:33 REFUELING -0.78%5741498
2018-01-08 23:36:52 REFUELING -0.74%5751505
2018-01-08 23:37:12 REFUELING -0.76%5731604
2018-01-08 23:37:29 CLIMBING5522380
2018-01-08 23:37:32 REFUELING -0.75%5502491
2018-01-08 23:37:52 REFUELING -0.72%5472957
2018-01-08 23:38:09 CRUISE5542978
2018-01-08 23:38:12 REFUELING -0.73%5552992
2018-01-08 23:38:33 REFUELING -0.77%5602997
2018-01-08 23:38:52 REFUELING -0.71%5632997
2018-01-08 23:39:12 REFUELING -0.74%5652999
2018-01-08 23:39:32 REFUELING -0.75%5662997
2018-01-08 23:39:52 REFUELING -0.73%5672997
2018-01-08 23:40:12 REFUELING -0.74%5672998
2018-01-08 23:40:33 REFUELING -0.77%5672999
2018-01-08 23:40:52 REFUELING -0.72%5672998
2018-01-08 23:41:12 REFUELING -0.74%5682996
2018-01-08 23:41:32 REFUELING -0.74%5682997
2018-01-08 23:41:52 REFUELING -0.74%5682996
2018-01-08 23:42:12 REFUELING -0.74%5682996
2018-01-08 23:42:33 REFUELING -0.77%5682998
2018-01-08 23:42:52 REFUELING -0.71%5682998
2018-01-08 23:43:12 REFUELING -0.75%5682997
2018-01-08 23:43:32 REFUELING -0.75%5682999
2018-01-08 23:43:52 REFUELING -0.74%5682998
2018-01-08 23:44:12 REFUELING -0.74%5682996
2018-01-08 23:44:33 REFUELING -0.77%5682998
2018-01-08 23:44:52 REFUELING -0.71%5682997
2018-01-08 23:45:12 REFUELING -0.74%5683001
2018-01-08 23:45:32 REFUELING -0.75%5682998
2018-01-08 23:45:52 REFUELING -0.73%5682998
2018-01-08 23:46:12 REFUELING -0.75%5682999
2018-01-08 23:46:33 REFUELING -0.76%5692997
2018-01-08 23:46:52 REFUELING -0.72%5692994
2018-01-08 23:47:12 REFUELING -0.74%5692998
2018-01-08 23:47:32 REFUELING -0.75%5692998
2018-01-08 23:47:52 REFUELING -0.74%5692999
2018-01-08 23:48:12 REFUELING -0.75%5692994
2018-01-08 23:48:33 REFUELING -0.77%5692996
2018-01-08 23:48:52 REFUELING -0.71%5692995
2018-01-08 23:49:12 REFUELING -0.74%5692997
2018-01-08 23:49:32 REFUELING -0.75%5692995
2018-01-08 23:49:52 REFUELING -0.74%5692995
2018-01-08 23:50:12 REFUELING -0.74%5692994
2018-01-08 23:50:33 REFUELING -0.78%5692993
2018-01-08 23:50:52 REFUELING -0.71%5692991
2018-01-08 23:51:12 REFUELING -0.74%5692990
2018-01-08 23:51:32 REFUELING -0.75%5692988
2018-01-08 23:51:52 REFUELING -0.74%5692987
2018-01-08 23:52:12 REFUELING -0.75%5692985
2018-01-08 23:52:33 REFUELING -0.77%5692983
2018-01-08 23:52:52 REFUELING -0.72%5692983
2018-01-08 23:53:12 REFUELING -0.68%5692980
2018-01-08 23:53:32 REFUELING -0.75%5394041
2018-01-08 23:53:49 CLIMBING4516871
2018-01-08 23:53:52 REFUELING -0.64%4417316
2018-01-08 23:54:12 REFUELING -0.57%4409690
2018-01-08 23:54:25 LIGHTS ON ABOVE 10000 ft44710508
2018-01-08 23:54:33 REFUELING 88.49%45811652
2018-01-08 23:54:52 REFUELING -0.99%47714996
2018-01-08 23:55:12 REFUELING -1.09%50618333
2018-01-08 23:55:32 REFUELING -1.16%52921627
2018-01-08 23:55:52 REFUELING -1.08%54623661
2018-01-08 23:56:12 REFUELING -0.96%57023573
2018-01-08 23:56:29 CRUISE58023567
2018-01-08 23:56:33 REFUELING -0.96%58223567
2018-01-08 23:56:52 REFUELING -0.88%58923571
2018-01-08 23:57:12 REFUELING -0.89%59323574
2018-01-08 23:57:32 REFUELING -0.89%59623576
2018-01-08 23:57:52 REFUELING -0.88%59723578
2018-01-08 23:58:12 REFUELING -0.87%59823579
2018-01-08 23:58:33 REFUELING -0.91%59923573
2018-01-08 23:58:52 REFUELING -0.84%59923588
2018-01-08 23:59:12 REFUELING -0.86%60023570
2018-01-08 23:59:32 REFUELING -0.88%60123510
2018-01-08 23:59:49 DESCEND61721603
2018-01-08 23:59:52 REFUELING -0.73%61921270
2018-01-09 00:00:12 REFUELING -0.76%63018979
2018-01-09 00:00:33 REFUELING -0.85%63516685
2018-01-09 00:00:52 REFUELING -0.71%63414395
2018-01-09 00:01:12 REFUELING -0.76%63912085
2018-01-09 00:01:32 REFUELING -0.73%6449806
2018-01-09 00:01:52 REFUELING -0.66%6377541
2018-01-09 00:02:12 REFUELING -0.63%6395246
2018-01-09 00:02:33 REFUELING -0.66%6372963
2018-01-09 00:02:52 REFUELING -0.67%6231453
2018-01-09 00:03:12 REFUELING -0.80%6021460
2018-01-09 00:03:29 CRUISE5921461
2018-01-09 00:03:32 REFUELING -0.78%5911461
2018-01-09 00:03:52 REFUELING -0.76%5851461
2018-01-09 00:04:12 REFUELING -0.78%5811458
2018-01-09 00:04:33 REFUELING -0.79%5791457
2018-01-09 00:04:52 REFUELING -0.75%5811343
2018-01-09 00:05:09 DESCEND5831241
2018-01-09 00:05:12 REFUELING -0.77%5831224
2018-01-09 00:05:32 REFUELING -0.79%5841094
2018-01-09 00:05:52 REFUELING -0.77%586959
2018-01-09 00:06:12 REFUELING -0.78%587824
2018-01-09 00:06:33 REFUELING -0.81%588690
2018-01-09 00:06:52 REFUELING -0.76%589554
2018-01-09 00:07:12 REFUELING -0.79%590419
2018-01-09 00:07:32 REFUELING -0.79%590286
2018-01-09 00:07:52 REFUELING -0.79%584385
2018-01-09 00:08:09 CLIMBING577646
2018-01-09 00:08:12 REFUELING -0.77%574742
2018-01-09 00:08:33 REFUELING -0.79%5601341
2018-01-09 00:08:52 REFUELING -0.74%5641481
2018-01-09 00:09:12 REFUELING -0.76%5691497
2018-01-09 00:09:19 CRUISE5701498
2018-01-09 00:09:32 REFUELING -0.75%5721498
2018-01-09 00:09:52 REFUELING -0.77%5741499
2018-01-09 00:10:12 REFUELING -0.77%5751497
2018-01-09 00:10:33 REFUELING -0.78%5761497
2018-01-09 00:10:52 REFUELING -0.75%5761498
2018-01-09 00:11:12 REFUELING -0.76%5771498
2018-01-09 00:11:33 REFUELING -0.80%5771498
2018-01-09 00:11:52 REFUELING -0.74%5771498
2018-01-09 00:12:12 REFUELING -0.77%5771499
2018-01-09 00:12:33 REFUELING -0.79%5771497
2018-01-09 00:12:52 REFUELING -0.74%5771499
2018-01-09 00:13:12 REFUELING -0.99%6361476
2018-01-09 00:13:32 REFUELING -1.66%7751720
2018-01-09 00:13:39 CLIMBING7931803
2018-01-09 00:13:52 REFUELING -1.67%8121816
2018-01-09 00:14:09 DESCEND7351539
2018-01-09 00:14:12 REFUELING -1.05%6871477
2018-01-09 00:14:49 CLIMBING3351260
2018-01-09 00:14:51 GEAR DOWN3031330
2018-01-09 00:14:53 FLAPS EXTENSION 100 % 2791450
2018-01-09 00:15:29 DESCEND106305
2018-01-09 00:15:46 LANDING10257
2018-01-09 00:15:57 TAXI TO THE GATE1958
 ACARS DATA
DATE IASGSALTITUDEFUEL CONSUMED OATFLIGHT STATUS
2018-01-08 23:05:320090615BOARDING
2018-01-08 23:06:3288901515BOARDING
2018-01-08 23:07:32812902615TAXI TO THE RWY
2018-01-08 23:08:3289904215TAXI TO THE RWY
2018-01-08 23:09:32408407181713011CLIMBING
2018-01-08 23:10:32585550152122112DESCEND
2018-01-08 23:11:32577543149729512CRUISE
2018-01-08 23:12:32525499150535912CRUISE
2018-01-08 23:13:32501479149741612CRUISE
2018-01-08 23:14:32455440149746312CRUISE
2018-01-08 23:15:32450436149751112CRUISE
2018-01-08 23:16:32450436149655912CRUISE
2018-01-08 23:17:32450436149760712CRUISE
2018-01-08 23:18:32449436149665612CRUISE
2018-01-08 23:19:32449436149770312CRUISE
2018-01-08 23:20:32449436149875212CRUISE
2018-01-08 23:21:32449436149880012CRUISE
2018-01-08 23:22:32449436149784712CRUISE
2018-01-08 23:23:32449436149689512CRUISE
2018-01-08 23:24:32449436149694312CRUISE
2018-01-08 23:25:32449436149699112CRUISE
2018-01-08 23:26:324494361498103912CRUISE
2018-01-08 23:27:324494361498108712CRUISE
2018-01-08 23:28:324494361498113512CRUISE
2018-01-08 23:29:324494361496118412CRUISE
2018-01-08 23:30:324494361496123212CRUISE
2018-01-08 23:31:324494361496127912CRUISE
2018-01-08 23:32:324504361498132812CRUISE
2018-01-08 23:33:324494361497137612CRUISE
2018-01-08 23:34:324494361498142312CRUISE
2018-01-08 23:35:325595291498149712CRUISE
2018-01-08 23:36:325735401498157012CRUISE
2018-01-08 23:37:325495262490164310CLIMBING
2018-01-08 23:38:32560539299717139CRUISE
2018-01-08 23:39:32566544299617849CRUISE
2018-01-08 23:40:32567545299818559CRUISE
2018-01-08 23:41:32567545299619269CRUISE
2018-01-08 23:42:32567545299719979CRUISE
2018-01-08 23:43:32568545299820689CRUISE
2018-01-08 23:44:32568546299721399CRUISE
2018-01-08 23:45:32568546299722119CRUISE
2018-01-08 23:46:32568546299622829CRUISE
2018-01-08 23:47:32568546299823539CRUISE
2018-01-08 23:48:32568546299624249CRUISE
2018-01-08 23:49:32568546299524969CRUISE
2018-01-08 23:50:32568546299225679CRUISE
2018-01-08 23:51:32569546298826389CRUISE
2018-01-08 23:52:32569546298327109CRUISE
2018-01-08 23:53:32539515404127797CRUISE
2018-01-08 23:54:3245851811652-13-7CLIMBING
2018-01-08 23:55:325286762162792-26CLIMBING
2018-01-08 23:56:3258177423567187-31CRUISE
2018-01-08 23:57:3259579223575273-31CRUISE
2018-01-08 23:58:3259879723573357-31CRUISE
2018-01-08 23:59:3260079823509440-31CRUISE
2018-01-09 00:00:3263574916685515-18DESCEND
2018-01-09 00:01:326436789806586-4DESCEND
2018-01-09 00:02:3263759729626489DESCEND
2018-01-09 00:03:32590553146172012CRUISE
2018-01-09 00:04:32579544145779512CRUISE
2018-01-09 00:05:32584546109386813DESCEND
2018-01-09 00:06:3258754668994313DESCEND
2018-01-09 00:07:32590545285101914DESCEND
2018-01-09 00:08:325605271340109312CLIMBING
2018-01-09 00:09:325725391497116612CRUISE
2018-01-09 00:10:325765421496124012CRUISE
2018-01-09 00:11:325765421497131412CRUISE
2018-01-09 00:12:325765421496138712CRUISE
2018-01-09 00:13:327757051719149511CRUISE
2018-01-09 00:14:324614391150158512DESCEND
2018-01-09 00:15:32102105210159214DESCEND
2018-01-09 00:16:320057160715TAXI TO THE GATE
2018-01-09 00:17:320057161315TAXI TO THE GATE
2018-01-09 00:18:320057161815TAXI TO THE GATE
2018-01-09 00:19:320057162315TAXI TO THE GATE
2018-01-09 00:20:320057162815TAXI TO THE GATE
2018-01-09 00:21:320057163415TAXI TO THE GATE